sensor_id;sensor_type;location;lat;lon;timestamp;pressure;altitude;pressure_sealevel;temperature;humidity
23427;BME280;41148;45.420;10.952;2023-02-04T00:00:31;101133.09;;;3.86;100.00
23427;BME280;41148;45.420;10.952;2023-02-04T00:03:04;101140.09;;;3.78;100.00
23427;BME280;41148;45.420;10.952;2023-02-04T00:05:31;101132.97;;;3.61;100.00
23427;BME280;41148;45.420;10.952;2023-02-04T00:07:59;101134.69;;;3.59;100.00
23427;BME280;41148;45.420;10.952;2023-02-04T00:13:34;101143.41;;;3.51;100.00
23427;BME280;41148;45.420;10.952;2023-02-04T00:16:01;101137.19;;;3.39;100.00
23427;BME280;41148;45.420;10.952;2023-02-04T00:18:29;101135.31;;;3.28;100.00
23427;BME280;41148;45.420;10.952;2023-02-04T00:20:56;101116.84;;;3.22;100.00
23427;BME280;41148;45.420;10.952;2023-02-04T00:23:24;101111.59;;;3.25;100.00
23427;BME280;41148;45.420;10.952;2023-02-04T00:25:52;101138.69;;;3.11;100.00
23427;BME280;41148;45.420;10.952;2023-02-04T00:28:19;101147.56;;;3.21;100.00
23427;BME280;41148;45.420;10.952;2023-02-04T00:30:47;101149.19;;;3.10;100.00
23427;BME280;41148;45.420;10.952;2023-02-04T00:33:14;101152.91;;;3.33;100.00
23427;BME280;41148;45.420;10.952;2023-02-04T00:35:42;101155.38;;;3.13;100.00
23427;BME280;41148;45.420;10.952;2023-02-04T00:38:10;101149.28;;;3.19;100.00
23427;BME280;41148;45.420;10.952;2023-02-04T00:40:38;101159.94;;;3.34;100.00
23427;BME280;41148;45.420;10.952;2023-02-04T00:43:05;101159.91;;;3.28;100.00
23427;BME280;41148;45.420;10.952;2023-02-04T00:45:33;101151.88;;;3.17;100.00
23427;BME280;41148;45.420;10.952;2023-02-04T00:48:01;101151.94;;;3.22;100.00
23427;BME280;41148;45.420;10.952;2023-02-04T00:50:28;101140.47;;;3.15;100.00
23427;BME280;41148;45.420;10.952;2023-02-04T00:52:56;101134.22;;;3.03;100.00
23427;BME280;41148;45.420;10.952;2023-02-04T00:55:29;101124.44;;;2.90;100.00
23427;BME280;41148;45.420;10.952;2023-02-04T00:57:58;101139.44;;;3.00;100.00
23427;BME280;41148;45.420;10.952;2023-02-04T01:00:25;101145.72;;;3.14;100.00
23427;BME280;41148;45.420;10.952;2023-02-04T01:02:55;101125.53;;;3.11;100.00
23427;BME280;41148;45.420;10.952;2023-02-04T01:05:22;101135.25;;;3.20;100.00
23427;BME280;41148;45.420;10.952;2023-02-04T01:07:50;101133.38;;;3.08;100.00
23427;BME280;41148;45.420;10.952;2023-02-04T01:10:18;101121.91;;;3.02;100.00
23427;BME280;41148;45.420;10.952;2023-02-04T01:12:46;101119.09;;;2.82;100.00
23427;BME280;41148;45.420;10.952;2023-02-04T01:15:14;101114.84;;;2.98;100.00
23427;BME280;41148;45.420;10.952;2023-02-04T01:17:41;101116.59;;;2.97;100.00
23427;BME280;41148;45.420;10.952;2023-02-04T01:20:09;101121.88;;;2.99;100.00
23427;BME280;41148;45.420;10.952;2023-02-04T01:22:37;101118.41;;;3.00;100.00
23427;BME280;41148;45.420;10.952;2023-02-04T01:25:05;101114.81;;;2.92;100.00
23427;BME280;41148;45.420;10.952;2023-02-04T01:27:41;101114.91;;;3.04;100.00
23427;BME280;41148;45.420;10.952;2023-02-04T01:30:10;101113.16;;;3.03;100.00
23427;BME280;41148;45.420;10.952;2023-02-04T01:32:38;101104.38;;;3.04;100.00
23427;BME280;41148;45.420;10.952;2023-02-04T01:35:07;101107.78;;;2.91;100.00
23427;BME280;41148;45.420;10.952;2023-02-04T01:37:35;101102.34;;;2.74;100.00
23427;BME280;41148;45.420;10.952;2023-02-04T01:40:03;101129.44;;;2.68;100.00
23427;BME280;41148;45.420;10.952;2023-02-04T01:42:31;101121.66;;;2.77;100.00
23427;BME280;41148;45.420;10.952;2023-02-04T01:44:59;101135.00;;;2.94;100.00
23427;BME280;41148;45.420;10.952;2023-02-04T01:47:26;101127.25;;;3.09;100.00
23427;BME280;41148;45.420;10.952;2023-02-04T01:49:54;101129.81;;;3.03;100.00
23427;BME280;41148;45.420;10.952;2023-02-04T01:52:22;101128.75;;;2.83;100.00
23427;BME280;41148;45.420;10.952;2023-02-04T01:54:51;101132.91;;;2.64;100.00
23427;BME280;41148;45.420;10.952;2023-02-04T01:57:19;101111.13;;;2.79;100.00
23427;BME280;41148;45.420;10.952;2023-02-04T01:59:48;101108.78;;;3.06;100.00
23427;BME280;41148;45.420;10.952;2023-02-04T02:05:14;101112.28;;;3.07;100.00
23427;BME280;41148;45.420;10.952;2023-02-04T02:07:43;101110.69;;;3.21;99.70
23427;BME280;41148;45.420;10.952;2023-02-04T02:10:12;101108.84;;;3.14;98.86
23427;BME280;41148;45.420;10.952;2023-02-04T02:12:43;101103.50;;;3.05;99.17
23427;BME280;41148;45.420;10.952;2023-02-04T02:15:12;101098.31;;;3.09;99.01
23427;BME280;41148;45.420;10.952;2023-02-04T02:17:41;101111.50;;;3.15;99.14
23427;BME280;41148;45.420;10.952;2023-02-04T02:20:11;101095.75;;;3.19;98.87
23427;BME280;41148;45.420;10.952;2023-02-04T02:22:54;101112.50;;;3.28;98.78
23427;BME280;41148;45.420;10.952;2023-02-04T02:25:24;101092.19;;;3.13;98.72
23427;BME280;41148;45.420;10.952;2023-02-04T02:27:53;101078.91;;;3.00;100.00
23427;BME280;41148;45.420;10.952;2023-02-04T02:30:21;101076.31;;;3.04;99.44
23427;BME280;41148;45.420;10.952;2023-02-04T02:32:50;101091.22;;;3.07;99.13
23427;BME280;41148;45.420;10.952;2023-02-04T02:35:19;101065.75;;;3.00;99.07
23427;BME280;41148;45.420;10.952;2023-02-04T02:37:48;101061.31;;;2.94;99.09
23427;BME280;41148;45.420;10.952;2023-02-04T02:40:16;101062.97;;;2.84;98.76
23427;BME280;41148;45.420;10.952;2023-02-04T02:42:48;101067.31;;;2.81;99.04
23427;BME280;41148;45.420;10.952;2023-02-04T02:45:27;101053.91;;;2.55;99.82
23427;BME280;41148;45.420;10.952;2023-02-04T02:47:58;101064.41;;;2.53;100.00
23427;BME280;41148;45.420;10.952;2023-02-04T02:50:29;101054.09;;;2.72;99.82
23427;BME280;41148;45.420;10.952;2023-02-04T02:52:59;101061.03;;;2.68;99.55
23427;BME280;41148;45.420;10.952;2023-02-04T02:55:27;101062.88;;;2.74;99.74
23427;BME280;41148;45.420;10.952;2023-02-04T02:57:56;101081.09;;;2.57;100.00
23427;BME280;41148;45.420;10.952;2023-02-04T03:00:29;101078.34;;;2.45;100.00
23427;BME280;41148;45.420;10.952;2023-02-04T03:03:06;101060.91;;;2.53;100.00
23427;BME280;41148;45.420;10.952;2023-02-04T03:05:40;101070.59;;;2.60;100.00
23427;BME280;41148;45.420;10.952;2023-02-04T03:08:10;101060.94;;;2.56;100.00
23427;BME280;41148;45.420;10.952;2023-02-04T03:10:39;101071.44;;;2.54;100.00
23427;BME280;41148;45.420;10.952;2023-02-04T03:13:08;101060.91;;;2.54;100.00
23427;BME280;41148;45.420;10.952;2023-02-04T03:15:37;101049.53;;;2.58;100.00
23427;BME280;41148;45.420;10.952;2023-02-04T03:18:04;101051.94;;;2.36;100.00
23427;BME280;41148;45.420;10.952;2023-02-04T03:20:33;101061.69;;;2.47;100.00
23427;BME280;41148;45.420;10.952;2023-02-04T03:23:01;101053.72;;;2.38;100.00
23427;BME280;41148;45.420;10.952;2023-02-04T03:25:28;101056.44;;;2.47;100.00
23427;BME280;41148;45.420;10.952;2023-02-04T03:27:57;101055.59;;;2.50;100.00
23427;BME280;41148;45.420;10.952;2023-02-04T03:30:26;101057.44;;;2.58;100.00
23427;BME280;41148;45.420;10.952;2023-02-04T03:32:53;101047.75;;;2.53;100.00
23427;BME280;41148;45.420;10.952;2023-02-04T03:35:21;101039.88;;;2.56;100.00
23427;BME280;41148;45.420;10.952;2023-02-04T03:37:49;101028.56;;;2.63;100.00
23427;BME280;41148;45.420;10.952;2023-02-04T03:40:17;101040.66;;;2.44;100.00
23427;BME280;41148;45.420;10.952;2023-02-04T03:42:45;101042.41;;;2.44;100.00
23427;BME280;41148;45.420;10.952;2023-02-04T03:45:13;101031.78;;;2.38;100.00
23427;BME280;41148;45.420;10.952;2023-02-04T03:47:40;101036.91;;;2.22;100.00
23427;BME280;41148;45.420;10.952;2023-02-04T03:50:08;101022.03;;;2.27;100.00
23427;BME280;41148;45.420;10.952;2023-02-04T03:52:37;101032.56;;;2.26;100.00
23427;BME280;41148;45.420;10.952;2023-02-04T03:55:04;101033.50;;;2.33;100.00
23427;BME280;41148;45.420;10.952;2023-02-04T03:57:32;101025.34;;;2.11;100.00
23427;BME280;41148;45.420;10.952;2023-02-04T03:59:59;101032.34;;;2.09;100.00
23427;BME280;41148;45.420;10.952;2023-02-04T04:02:27;101043.94;;;2.26;100.00
23427;BME280;41148;45.420;10.952;2023-02-04T04:04:54;101047.44;;;2.24;100.00
23427;BME280;41148;45.420;10.952;2023-02-04T04:07:22;101026.19;;;2.07;100.00
23427;BME280;41148;45.420;10.952;2023-02-04T04:09:49;101047.09;;;1.96;100.00
23427;BME280;41148;45.420;10.952;2023-02-04T04:12:17;101043.88;;;2.20;100.00
23427;BME280;41148;45.420;10.952;2023-02-04T04:14:44;101054.44;;;2.23;100.00
23427;BME280;41148;45.420;10.952;2023-02-04T04:17:11;101048.00;;;1.98;100.00
23427;BME280;41148;45.420;10.952;2023-02-04T04:19:39;101042.09;;;2.19;100.00
23427;BME280;41148;45.420;10.952;2023-02-04T04:22:06;101053.59;;;2.29;100.00
23427;BME280;41148;45.420;10.952;2023-02-04T04:24:33;101068.47;;;2.25;100.00
23427;BME280;41148;45.420;10.952;2023-02-04T04:27:01;101059.03;;;2.43;99.88
23427;BME280;41148;45.420;10.952;2023-02-04T04:29:29;101064.19;;;2.32;99.24
23427;BME280;41148;45.420;10.952;2023-02-04T04:31:56;101066.38;;;1.98;100.00
23427;BME280;41148;45.420;10.952;2023-02-04T04:34:23;101047.25;;;2.12;100.00
23427;BME280;41148;45.420;10.952;2023-02-04T04:36:51;101054.50;;;2.29;99.27
23427;BME280;41148;45.420;10.952;2023-02-04T04:39:18;101053.69;;;2.34;99.51
23427;BME280;41148;45.420;10.952;2023-02-04T04:41:46;101072.19;;;2.44;98.62
23427;BME280;41148;45.420;10.952;2023-02-04T04:44:13;101063.34;;;2.38;98.06
23427;BME280;41148;45.420;10.952;2023-02-04T04:46:40;101036.13;;;2.33;97.58
23427;BME280;41148;45.420;10.952;2023-02-04T04:49:08;101023.81;;;2.32;98.42
23427;BME280;41148;45.420;10.952;2023-02-04T04:51:35;101012.50;;;2.34;98.12
23427;BME280;41148;45.420;10.952;2023-02-04T04:54:03;100995.78;;;2.30;97.70
23427;BME280;41148;45.420;10.952;2023-02-04T04:56:30;100986.19;;;2.33;97.64
23427;BME280;41148;45.420;10.952;2023-02-04T04:58:57;100988.84;;;2.36;97.35
23427;BME280;41148;45.420;10.952;2023-02-04T05:01:25;101017.06;;;2.52;97.86
23427;BME280;41148;45.420;10.952;2023-02-04T05:03:52;101024.88;;;2.44;97.87
23427;BME280;41148;45.420;10.952;2023-02-04T05:06:20;101021.31;;;2.41;98.62
23427;BME280;41148;45.420;10.952;2023-02-04T05:08:51;101014.94;;;2.19;99.88
23427;BME280;41148;45.420;10.952;2023-02-04T05:11:19;101015.81;;;2.18;100.00
23427;BME280;41148;45.420;10.952;2023-02-04T05:13:47;101025.63;;;2.34;98.84
23427;BME280;41148;45.420;10.952;2023-02-04T05:16:14;101029.19;;;2.39;98.61
23427;BME280;41148;45.420;10.952;2023-02-04T05:18:43;101037.78;;;2.24;99.91
23427;BME280;41148;45.420;10.952;2023-02-04T05:21:11;101048.31;;;2.23;99.72
23427;BME280;41148;45.420;10.952;2023-02-04T05:23:38;101046.31;;;2.04;100.00
23427;BME280;41148;45.420;10.952;2023-02-04T05:26:06;101069.16;;;2.12;100.00
23427;BME280;41148;45.420;10.952;2023-02-04T05:28:33;101054.44;;;2.25;99.33
23427;BME280;41148;45.420;10.952;2023-02-04T05:31:01;101065.84;;;2.24;98.39
23427;BME280;41148;45.420;10.952;2023-02-04T05:33:28;101093.88;;;2.23;98.93
23427;BME280;41148;45.420;10.952;2023-02-04T05:35:55;101076.41;;;2.32;99.02
23427;BME280;41148;45.420;10.952;2023-02-04T05:38:23;101071.16;;;2.32;98.71
23427;BME280;41148;45.420;10.952;2023-02-04T05:40:50;101059.84;;;2.39;97.45
23427;BME280;41148;45.420;10.952;2023-02-04T05:43:18;101055.44;;;2.35;98.13
23427;BME280;41148;45.420;10.952;2023-02-04T05:45:45;101066.94;;;2.46;97.92
23427;BME280;41148;45.420;10.952;2023-02-04T05:48:13;101068.38;;;2.16;98.40
23427;BME280;41148;45.420;10.952;2023-02-04T05:50:41;101056.94;;;2.13;97.84
23427;BME280;41148;45.420;10.952;2023-02-04T05:53:08;101070.03;;;2.10;98.18
23427;BME280;41148;45.420;10.952;2023-02-04T05:55:36;101079.50;;;1.95;98.70
23427;BME280;41148;45.420;10.952;2023-02-04T05:58:03;101056.78;;;2.02;99.16
23427;BME280;41148;45.420;10.952;2023-02-04T06:00:31;101076.25;;;2.15;98.86
23427;BME280;41148;45.420;10.952;2023-02-04T06:02:59;101082.31;;;2.12;97.95
23427;BME280;41148;45.420;10.952;2023-02-04T06:05:26;101086.88;;;2.25;98.18
23427;BME280;41148;45.420;10.952;2023-02-04T06:07:53;101070.16;;;2.22;98.41
23427;BME280;41148;45.420;10.952;2023-02-04T06:10:21;101072.63;;;2.08;98.21
23427;BME280;41148;45.420;10.952;2023-02-04T06:12:48;101090.25;;;2.14;97.73
23427;BME280;41148;45.420;10.952;2023-02-04T06:15:16;101085.94;;;2.20;98.32
23427;BME280;41148;45.420;10.952;2023-02-04T06:17:43;101064.88;;;2.17;100.00
23427;BME280;41148;45.420;10.952;2023-02-04T06:20:12;101083.28;;;2.20;100.00
23427;BME280;41148;45.420;10.952;2023-02-04T06:22:40;101096.72;;;2.42;98.90
23427;BME280;41148;45.420;10.952;2023-02-04T06:25:07;101110.91;;;2.56;98.38
23427;BME280;41148;45.420;10.952;2023-02-04T06:27:35;101103.16;;;2.70;98.08
23427;BME280;41148;45.420;10.952;2023-02-04T06:30:02;101104.88;;;2.66;98.52
23427;BME280;41148;45.420;10.952;2023-02-04T06:32:30;101101.13;;;2.43;99.42
23427;BME280;41148;45.420;10.952;2023-02-04T06:34:57;101097.84;;;2.65;99.48
23427;BME280;41148;45.420;10.952;2023-02-04T06:37:24;101109.44;;;2.84;99.18
23427;BME280;41148;45.420;10.952;2023-02-04T06:39:52;101123.50;;;2.86;98.27
23427;BME280;41148;45.420;10.952;2023-02-04T06:42:20;101129.66;;;2.86;98.52
23427;BME280;41148;45.420;10.952;2023-02-04T06:44:48;101125.41;;;2.99;96.47
23427;BME280;41148;45.420;10.952;2023-02-04T06:47:15;101143.78;;;2.95;96.50
23427;BME280;41148;45.420;10.952;2023-02-04T06:49:42;101140.16;;;2.86;96.00
23427;BME280;41148;45.420;10.952;2023-02-04T06:52:10;101143.59;;;2.78;96.47
23427;BME280;41148;45.420;10.952;2023-02-04T06:54:37;101147.84;;;2.68;97.90
23427;BME280;41148;45.420;10.952;2023-02-04T06:57:05;101166.47;;;2.85;97.68
23427;BME280;41148;45.420;10.952;2023-02-04T06:59:37;101168.25;;;2.86;97.65
23427;BME280;41148;45.420;10.952;2023-02-04T07:02:06;101152.63;;;3.00;97.38
23427;BME280;41148;45.420;10.952;2023-02-04T07:04:33;101140.25;;;2.96;98.21
23427;BME280;41148;45.420;10.952;2023-02-04T07:07:01;101159.44;;;2.84;99.14
23427;BME280;41148;45.420;10.952;2023-02-04T07:09:29;101170.00;;;2.88;99.66
23427;BME280;41148;45.420;10.952;2023-02-04T07:11:56;101162.13;;;2.88;99.24
23427;BME280;41148;45.420;10.952;2023-02-04T07:14:24;101152.44;;;2.84;99.52
23427;BME280;41148;45.420;10.952;2023-02-04T07:16:51;101146.31;;;2.87;99.45
23427;BME280;41148;45.420;10.952;2023-02-04T07:19:18;101146.50;;;3.04;99.13
23427;BME280;41148;45.420;10.952;2023-02-04T07:21:47;101161.50;;;3.11;98.95
23427;BME280;41148;45.420;10.952;2023-02-04T07:24:14;101173.91;;;3.26;98.63
23427;BME280;41148;45.420;10.952;2023-02-04T07:26:42;101170.44;;;3.28;98.11
23427;BME280;41148;45.420;10.952;2023-02-04T07:29:09;101170.50;;;3.36;97.71
23427;BME280;41148;45.420;10.952;2023-02-04T07:31:47;101182.84;;;3.38;97.17
23427;BME280;41148;45.420;10.952;2023-02-04T07:34:17;101187.41;;;3.62;95.34
23427;BME280;41148;45.420;10.952;2023-02-04T07:36:44;101176.88;;;3.62;94.62
23427;BME280;41148;45.420;10.952;2023-02-04T07:39:12;101184.69;;;3.53;95.47
23427;BME280;41148;45.420;10.952;2023-02-04T07:41:39;101195.25;;;3.53;95.59
23427;BME280;41148;45.420;10.952;2023-02-04T07:44:07;101196.09;;;3.52;96.18
23427;BME280;41148;45.420;10.952;2023-02-04T07:46:34;101205.88;;;3.65;95.52
23427;BME280;41148;45.420;10.952;2023-02-04T07:49:02;101194.44;;;3.63;95.43
23427;BME280;41148;45.420;10.952;2023-02-04T07:51:29;101194.34;;;3.50;96.02
23427;BME280;41148;45.420;10.952;2023-02-04T07:53:57;101206.72;;;3.60;96.40
23427;BME280;41148;45.420;10.952;2023-02-04T07:56:24;101207.69;;;3.69;95.20
23427;BME280;41148;45.420;10.952;2023-02-04T07:58:52;101187.50;;;3.73;94.86
23427;BME280;41148;45.420;10.952;2023-02-04T08:01:19;101194.53;;;3.74;94.81
23427;BME280;41148;45.420;10.952;2023-02-04T08:03:46;101199.84;;;3.77;95.39
23427;BME280;41148;45.420;10.952;2023-02-04T08:06:14;101203.44;;;3.91;94.49
23427;BME280;41148;45.420;10.952;2023-02-04T08:08:41;101190.19;;;3.82;94.39
23427;BME280;41148;45.420;10.952;2023-02-04T08:11:09;101206.97;;;3.89;94.25
23427;BME280;41148;45.420;10.952;2023-02-04T08:13:36;101205.22;;;3.95;93.97
23427;BME280;41148;45.420;10.952;2023-02-04T08:16:04;101212.38;;;4.06;93.46
23427;BME280;41148;45.420;10.952;2023-02-04T08:18:31;101218.59;;;4.17;93.29
23427;BME280;41148;45.420;10.952;2023-02-04T08:20:59;101218.66;;;4.27;92.18
23427;BME280;41148;45.420;10.952;2023-02-04T08:23:27;101223.88;;;4.21;92.97
23427;BME280;41148;45.420;10.952;2023-02-04T08:25:55;101231.00;;;4.36;92.81
23427;BME280;41148;45.420;10.952;2023-02-04T08:28:22;101229.31;;;4.49;92.25
23427;BME280;41148;45.420;10.952;2023-02-04T08:30:50;101220.34;;;4.22;92.00
23427;BME280;41148;45.420;10.952;2023-02-04T08:33:18;101220.47;;;4.38;92.35
23427;BME280;41148;45.420;10.952;2023-02-04T08:35:46;101202.00;;;4.44;91.83
23427;BME280;41148;45.420;10.952;2023-02-04T08:38:13;101209.03;;;4.40;91.84
23427;BME280;41148;45.420;10.952;2023-02-04T08:40:40;101210.06;;;4.71;91.28
23427;BME280;41148;45.420;10.952;2023-02-04T08:43:09;101215.56;;;5.31;87.88
23427;BME280;41148;45.420;10.952;2023-02-04T08:45:36;101199.72;;;5.96;84.34
23427;BME280;41148;45.420;10.952;2023-02-04T08:48:04;101187.06;;;6.99;79.26
23427;BME280;41148;45.420;10.952;2023-02-04T08:50:32;101211.06;;;6.67;80.60
23427;BME280;41148;45.420;10.952;2023-02-04T08:53:00;101242.66;;;7.04;80.30
23427;BME280;41148;45.420;10.952;2023-02-04T08:55:27;101213.91;;;7.79;76.59
23427;BME280;41148;45.420;10.952;2023-02-04T08:57:55;101210.13;;;8.08;74.78
23427;BME280;41148;45.420;10.952;2023-02-04T09:00:22;101222.22;;;7.30;77.53
23427;BME280;41148;45.420;10.952;2023-02-04T09:02:50;101217.03;;;7.15;78.85
23427;BME280;41148;45.420;10.952;2023-02-04T09:05:18;101226.56;;;7.40;77.75
23427;BME280;41148;45.420;10.952;2023-02-04T09:07:45;101210.69;;;7.39;77.71
23427;BME280;41148;45.420;10.952;2023-02-04T09:10:12;101208.88;;;7.44;77.20
23427;BME280;41148;45.420;10.952;2023-02-04T09:12:40;101215.28;;;7.08;79.59
23427;BME280;41148;45.420;10.952;2023-02-04T09:15:10;101215.44;;;6.70;81.88
23427;BME280;41148;45.420;10.952;2023-02-04T09:17:38;101211.94;;;6.63;82.93
23427;BME280;41148;45.420;10.952;2023-02-04T09:20:06;101241.03;;;6.71;83.37
23427;BME280;41148;45.420;10.952;2023-02-04T09:22:33;101234.91;;;6.52;84.40
23427;BME280;41148;45.420;10.952;2023-02-04T09:25:02;101229.69;;;6.30;85.58
23427;BME280;41148;45.420;10.952;2023-02-04T09:27:30;101249.94;;;6.48;84.95
23427;BME280;41148;45.420;10.952;2023-02-04T09:29:58;101241.09;;;6.57;84.69
23427;BME280;41148;45.420;10.952;2023-02-04T09:32:25;101250.81;;;6.49;85.38
23427;BME280;41148;45.420;10.952;2023-02-04T09:34:53;101257.88;;;6.35;87.08
23427;BME280;41148;45.420;10.952;2023-02-04T09:37:20;101257.88;;;6.45;87.08
23427;BME280;41148;45.420;10.952;2023-02-04T09:39:48;101246.44;;;6.32;85.95
23427;BME280;41148;45.420;10.952;2023-02-04T09:42:15;101247.31;;;6.27;85.82
23427;BME280;41148;45.420;10.952;2023-02-04T09:44:43;101247.31;;;6.35;86.01
23427;BME280;41148;45.420;10.952;2023-02-04T09:47:11;101254.34;;;6.49;86.43
23427;BME280;41148;45.420;10.952;2023-02-04T09:49:43;101261.38;;;6.63;86.22
23427;BME280;41148;45.420;10.952;2023-02-04T09:52:15;101257.00;;;6.48;87.62
23427;BME280;41148;45.420;10.952;2023-02-04T09:54:43;101244.66;;;6.50;87.47
23427;BME280;41148;45.420;10.952;2023-02-04T09:57:18;101249.03;;;6.57;87.46
23427;BME280;41148;45.420;10.952;2023-02-04T09:59:54;101249.91;;;6.67;86.48
23427;BME280;41148;45.420;10.952;2023-02-04T10:02:24;101255.16;;;6.71;86.40
23427;BME280;41148;45.420;10.952;2023-02-04T10:04:55;101275.44;;;6.81;86.02
23427;BME280;41148;45.420;10.952;2023-02-04T10:07:24;101278.06;;;6.87;85.25
23427;BME280;41148;45.420;10.952;2023-02-04T10:09:53;101279.88;;;6.79;85.79
23427;BME280;41148;45.420;10.952;2023-02-04T10:12:22;101272.78;;;6.83;86.20
23427;BME280;41148;45.420;10.952;2023-02-04T10:14:50;101270.09;;;6.94;85.75
23427;BME280;41148;45.420;10.952;2023-02-04T10:17:21;101279.84;;;6.85;86.64
23427;BME280;41148;45.420;10.952;2023-02-04T10:19:49;101288.69;;;6.74;87.20
23427;BME280;41148;45.420;10.952;2023-02-04T10:22:19;101301.88;;;6.94;86.77
23427;BME280;41148;45.420;10.952;2023-02-04T10:24:47;101279.75;;;7.08;86.37
23427;BME280;41148;45.420;10.952;2023-02-04T10:27:14;101264.72;;;7.12;86.22
23427;BME280;41148;45.420;10.952;2023-02-04T10:29:57;101259.41;;;7.18;85.70
23427;BME280;41148;45.420;10.952;2023-02-04T10:32:30;101282.25;;;7.37;85.73
23427;BME280;41148;45.420;10.952;2023-02-04T10:35:00;101274.25;;;7.48;85.61
23427;BME280;41148;45.420;10.952;2023-02-04T10:37:28;101267.25;;;7.36;85.65
23427;BME280;41148;45.420;10.952;2023-02-04T10:39:59;101268.06;;;7.46;85.54
23427;BME280;41148;45.420;10.952;2023-02-04T10:42:28;101270.69;;;7.55;85.91
23427;BME280;41148;45.420;10.952;2023-02-04T10:44:56;101257.34;;;7.61;85.75
23427;BME280;41148;45.420;10.952;2023-02-04T10:47:28;101273.19;;;7.77;84.94
23427;BME280;41148;45.420;10.952;2023-02-04T10:50:14;101280.28;;;7.74;85.10
23427;BME280;41148;45.420;10.952;2023-02-04T10:52:46;101258.16;;;7.74;84.39
23427;BME280;41148;45.420;10.952;2023-02-04T10:55:18;101252.00;;;7.73;85.01
23427;BME280;41148;45.420;10.952;2023-02-04T10:57:47;101253.69;;;7.79;85.04
23427;BME280;41148;45.420;10.952;2023-02-04T11:00:23;101245.63;;;7.96;84.59
23427;BME280;41148;45.420;10.952;2023-02-04T11:05:22;101245.63;;;7.96;84.46
23427;BME280;41148;45.420;10.952;2023-02-04T11:07:50;101232.28;;;8.00;84.16
23427;BME280;41148;45.420;10.952;2023-02-04T11:10:21;101228.69;;;8.08;83.36
23427;BME280;41148;45.420;10.952;2023-02-04T11:15:42;101238.34;;;8.18;83.12
23427;BME280;41148;45.420;10.952;2023-02-04T11:18:25;101233.75;;;8.33;82.00
23427;BME280;41148;45.420;10.952;2023-02-04T11:20:56;101229.38;;;8.28;81.97
23427;BME280;41148;45.420;10.952;2023-02-04T11:26:11;101233.75;;;8.40;81.53
23427;BME280;41148;45.420;10.952;2023-02-04T11:28:48;101235.38;;;8.51;81.02
23427;BME280;41148;45.420;10.952;2023-02-04T11:33:48;101240.56;;;8.64;80.30
23427;BME280;41148;45.420;10.952;2023-02-04T11:36:16;101246.78;;;8.63;80.26
23427;BME280;41148;45.420;10.952;2023-02-04T11:38:48;101245.00;;;8.63;80.76
23427;BME280;41148;45.420;10.952;2023-02-04T11:41:22;101238.66;;;8.75;79.99
23427;BME280;41148;45.420;10.952;2023-02-04T11:43:52;101232.47;;;8.74;80.18
23427;BME280;41148;45.420;10.952;2023-02-04T11:46:22;101227.63;;;9.05;79.17
23427;BME280;41148;45.420;10.952;2023-02-04T11:48:57;101224.09;;;9.05;78.83
23427;BME280;41148;45.420;10.952;2023-02-04T11:51:29;101223.25;;;9.03;78.88
23427;BME280;41148;45.420;10.952;2023-02-04T11:53:57;101226.72;;;9.09;78.25
23427;BME280;41148;45.420;10.952;2023-02-04T11:56:27;101226.50;;;9.25;77.70
23427;BME280;41148;45.420;10.952;2023-02-04T11:58:57;101225.72;;;9.15;77.75
23427;BME280;41148;45.420;10.952;2023-02-04T12:01:30;101223.06;;;9.18;77.99
23427;BME280;41148;45.420;10.952;2023-02-04T12:04:03;101223.00;;;9.21;77.93
23427;BME280;41148;45.420;10.952;2023-02-04T12:06:34;101232.88;;;9.11;78.11
23427;BME280;41148;45.420;10.952;2023-02-04T12:11:57;101239.69;;;9.32;78.01
23427;BME280;41148;45.420;10.952;2023-02-04T12:14:33;101236.13;;;9.33;78.25
23427;BME280;41148;45.420;10.952;2023-02-04T12:17:16;101227.25;;;9.34;78.37
23427;BME280;41148;45.420;10.952;2023-02-04T12:19:44;101216.47;;;9.43;77.26
23427;BME280;41148;45.420;10.952;2023-02-04T12:22:12;101210.34;;;9.38;77.37
23427;BME280;41148;45.420;10.952;2023-02-04T12:24:40;101204.16;;;9.38;77.24
23427;BME280;41148;45.420;10.952;2023-02-04T12:27:09;101212.91;;;9.44;77.59
23427;BME280;41148;45.420;10.952;2023-02-04T12:29:36;101202.28;;;9.43;76.94
23427;BME280;41148;45.420;10.952;2023-02-04T12:32:03;101203.91;;;9.53;76.56
23427;BME280;41148;45.420;10.952;2023-02-04T12:34:31;101190.47;;;9.62;76.00
23427;BME280;41148;45.420;10.952;2023-02-04T12:36:58;101208.22;;;9.62;75.91
23427;BME280;41148;45.420;10.952;2023-02-04T12:39:26;101201.16;;;9.59;75.76
23427;BME280;41148;45.420;10.952;2023-02-04T12:41:54;101200.16;;;9.68;74.92
23427;BME280;41148;45.420;10.952;2023-02-04T12:44:22;101197.22;;;9.83;73.16
23427;BME280;41148;45.420;10.952;2023-02-04T12:46:49;101199.69;;;9.95;72.71
23427;BME280;41148;45.420;10.952;2023-02-04T12:49:17;101206.97;;;9.83;72.84
23427;BME280;41148;45.420;10.952;2023-02-04T12:51:45;101202.50;;;9.86;73.49
23427;BME280;41148;45.420;10.952;2023-02-04T12:54:12;101187.19;;;9.99;71.32
23427;BME280;41148;45.420;10.952;2023-02-04T12:56:40;101190.34;;;10.21;70.80
23427;BME280;41148;45.420;10.952;2023-02-04T12:59:07;101191.00;;;10.35;71.35
23427;BME280;41148;45.420;10.952;2023-02-04T13:01:35;101179.69;;;10.22;72.07
23427;BME280;41148;45.420;10.952;2023-02-04T13:04:02;101186.88;;;10.17;71.96
23427;BME280;41148;45.420;10.952;2023-02-04T13:06:30;101187.66;;;10.24;70.69
23427;BME280;41148;45.420;10.952;2023-02-04T13:08:57;101167.88;;;10.37;68.68
23427;BME280;41148;45.420;10.952;2023-02-04T13:11:24;101168.84;;;10.33;69.45
23427;BME280;41148;45.420;10.952;2023-02-04T13:13:52;101184.53;;;10.48;68.95